Terminal Aerodrome Forecast
Issued by NWS

Home | Current Version | Previous Version | Text Only | Print | Product List | Glossary On
Versions: 1 2 3 4 5 6 7 8 9 10 11 12 13 14 15 16 17
162
FTUS44 KLZK 200530
TAFHRO
TAF
KHRO 200530Z 2006/2106 12009KT P6SM SCT050 BKN080
     FM201000 15010KT P6SM SCT025 OVC050
      TEMPO 2010/2014 5SM BR BKN025
     FM201400 16008G16KT P6SM VCSH OVC025 PROB30 2016/2022 4SM -TSRA
      BR OVC012CB
     FM202200 18008KT P6SM VCSH BKN025 OVC050
     FM210100 19005KT P6SM BKN050=

USA.gov is the U.S. government's official web portal to all federal, state and local government web resources and services.